Time;durP1;ratioP1;P1;durP2;ratioP2;P2;SDS_P1;SDS_P2;PMS_P1;PMS_P2;Temp;Humidity;BMP_temperature;BMP_pressure;BME280_temperature;BME280_humidity;BME280_pressure;Samples;Min_cycle;Max_cycle;Signal;HPM_P1;HPM_P2
2020/12/26 00:02:41;;;;;;;24.37;15.23;;;;;;;1.25;75.39;98936.04;2175214;82;21126;-79
2020/12/26 00:05:42;;;;;;;25.80;13.77;;;;;;;1.22;75.60;98942.31;2175435;82;21131;-78
2020/12/26 00:08:43;;;;;;;23.00;14.60;;;;;;;1.22;75.43;98941.03;2175349;82;21380;-77
2020/12/26 00:11:44;;;;;;;21.33;13.40;;;;;;;1.18;75.18;98935.26;2175162;82;21154;-77
2020/12/26 00:14:45;;;;;;;19.17;12.57;;;;;;;1.16;75.07;98947.56;2175250;82;21126;-79
2020/12/26 00:17:46;;;;;;;23.93;12.80;;;;;;;1.13;75.07;98948.28;2175315;82;21110;-79
2020/12/26 00:20:47;;;;;;;21.17;13.50;;;;;;;1.16;74.96;98951.41;2175350;82;21126;-77
2020/12/26 00:23:48;;;;;;;23.03;13.57;;;;;;;1.17;74.85;98948.03;2175379;82;21141;-77
2020/12/26 00:26:49;;;;;;;24.93;13.23;;;;;;;1.17;73.99;98956.63;2175150;82;21400;-78
2020/12/26 00:29:50;;;;;;;19.67;11.80;;;;;;;1.17;73.98;98959.20;2175296;82;21126;-78
2020/12/26 00:32:52;;;;;;;14.83;9.00;;;;;;;1.17;73.44;98959.20;2174945;82;21122;-77
2020/12/26 00:35:53;;;;;;;13.83;8.50;;;;;;;1.16;72.42;98957.84;2175336;82;21137;-80
2020/12/26 00:38:54;;;;;;;15.73;10.53;;;;;;;1.14;72.35;98961.62;2175345;80;21178;-77
2020/12/26 00:41:55;;;;;;;17.33;10.83;;;;;;;1.15;71.96;98966.36;2174754;82;21172;-76
2020/12/26 00:44:56;;;;;;;16.17;9.30;;;;;;;1.12;71.79;98960.66;2175020;82;21121;-76
2020/12/26 00:47:57;;;;;;;13.43;8.90;;;;;;;1.09;71.80;98966.05;2175176;82;21121;-78
2020/12/26 00:50:59;;;;;;;13.77;8.23;;;;;;;1.05;72.05;98964.13;2175180;82;21219;-77
2020/12/26 00:54:00;;;;;;;14.03;8.50;;;;;;;1.01;71.38;98963.09;2175352;82;21384;-76
2020/12/26 00:57:01;;;;;;;14.10;7.00;;;;;;;1.01;71.84;98961.80;2175164;82;21134;-77
2020/12/26 01:00:02;;;;;;;13.63;7.17;;;;;;;1.00;71.30;98950.16;2175423;82;21157;-77
2020/12/26 01:03:03;;;;;;;13.53;6.60;;;;;;;0.99;69.28;98959.97;2175410;82;21423;-77
2020/12/26 01:06:04;;;;;;;11.00;6.30;;;;;;;0.97;69.64;98953.45;2175324;82;21142;-78
2020/12/26 01:09:05;;;;;;;10.20;5.03;;;;;;;0.99;69.29;98957.39;2175635;82;21236;-77
2020/12/26 01:12:07;;;;;;;8.60;5.07;;;;;;;1.00;68.82;98966.87;2175185;82;21146;-76
2020/12/26 01:15:08;;;;;;;4.77;3.70;;;;;;;0.98;68.50;98964.22;2175202;82;21141;-77
2020/12/26 01:18:09;;;;;;;6.87;4.20;;;;;;;0.96;67.52;98965.83;2175466;82;21369;-77
2020/12/26 01:21:10;;;;;;;5.47;3.77;;;;;;;0.94;68.30;98967.03;2175244;82;21086;-77
2020/12/26 01:24:12;;;;;;;8.30;3.90;;;;;;;0.93;67.82;98964.39;2175186;82;21134;-77
2020/12/26 01:27:13;;;;;;;8.43;4.20;;;;;;;0.93;68.27;98965.67;2175308;82;21086;-78
2020/12/26 01:30:14;;;;;;;7.17;3.67;;;;;;;0.94;68.42;98964.87;2175254;82;21118;-77
2020/12/26 01:33:15;;;;;;;6.73;3.97;;;;;;;0.96;67.81;98960.69;2175431;82;21122;-78
2020/12/26 01:36:16;;;;;;;8.03;3.63;;;;;;;1.00;68.17;98962.61;2175490;82;21409;-78
2020/12/26 01:39:17;;;;;;;6.57;3.77;;;;;;;1.03;68.11;98958.91;2161427;80;21134;-78
2020/12/26 01:42:19;;;;;;;5.33;3.37;;;;;;;1.04;67.77;98960.67;2151902;82;21119;-78
2020/12/26 01:45:20;;;;;;;6.53;4.00;;;;;;;1.05;68.05;98959.88;2152302;82;21119;-77
2020/12/26 01:48:21;;;;;;;5.07;4.10;;;;;;;1.07;68.48;98965.97;2152051;83;21134;-77
2020/12/26 01:51:22;;;;;;;7.47;4.70;;;;;;;1.06;67.92;98968.47;2152181;82;21139;-76
2020/12/26 01:54:23;;;;;;;7.10;3.87;;;;;;;1.06;67.43;98968.06;2152063;82;21404;-77
2020/12/26 01:57:24;;;;;;;9.03;5.20;;;;;;;1.06;67.63;98969.34;2152108;82;21111;-77
2020/12/26 02:00:25;;;;;;;9.97;5.17;;;;;;;1.03;68.22;98964.05;2152152;82;21425;-77
2020/12/26 02:03:26;;;;;;;9.60;5.20;;;;;;;1.05;68.44;98967.58;2152154;82;21393;-77
2020/12/26 02:06:27;;;;;;;7.87;4.70;;;;;;;1.07;68.19;98962.12;2152099;82;21095;-76
2020/12/26 02:09:28;;;;;;;9.07;4.83;;;;;;;1.08;68.43;98960.42;2152006;82;21369;-78
2020/12/26 02:12:29;;;;;;;7.00;4.67;;;;;;;1.11;67.93;98956.73;2151842;82;21115;-78
2020/12/26 02:15:30;;;;;;;6.07;4.40;;;;;;;1.07;68.30;98963.41;2152207;82;21123;-76
2020/12/26 02:18:31;;;;;;;6.80;4.33;;;;;;;1.03;67.98;98966.63;2152065;82;21158;-78
2020/12/26 02:21:35;;;;;;;7.10;4.97;;;;;;;1.02;68.28;98961.41;2152112;82;21366;-77
2020/12/26 02:24:36;;;;;;;7.40;5.03;;;;;;;1.04;68.42;98954.25;2151832;82;21091;-77
2020/12/26 02:27:37;;;;;;;8.80;5.50;;;;;;;1.05;67.77;98961.16;2151916;82;21107;-77
2020/12/26 02:30:39;;;;;;;8.80;5.17;;;;;;;1.03;68.33;98963.17;2152063;82;21238;-77
2020/12/26 02:33:40;;;;;;;6.13;4.73;;;;;;;1.01;68.16;98961.80;2152102;82;21123;-77
2020/12/26 02:36:41;;;;;;;6.30;4.40;;;;;;;0.96;68.13;98959.41;2152499;82;21135;-77
2020/12/26 02:39:48;;;;;;;7.17;4.50;;;;;;;0.97;68.20;98960.28;2174794;81;21169;-77
2020/12/26 02:42:49;;;;;;;5.93;4.00;;;;;;;0.96;68.27;98954.27;2179877;81;21118;-77
2020/12/26 02:45:53;;;;;;;7.30;4.60;;;;;;;0.96;68.15;98958.12;2175417;82;21103;-77
2020/12/26 02:48:54;;;;;;;7.27;4.17;;;;;;;0.95;68.59;98962.38;2175328;82;21114;-77
2020/12/26 02:51:55;;;;;;;8.03;4.07;;;;;;;0.98;68.61;98962.05;2175604;82;21407;-77
2020/12/26 02:54:56;;;;;;;6.03;3.87;;;;;;;0.98;68.50;98959.08;2175475;82;21148;-77
2020/12/26 02:57:57;;;;;;;7.37;3.67;;;;;;;0.99;68.27;98957.39;2175586;82;21142;-77
2020/12/26 03:00:58;;;;;;;5.57;3.30;;;;;;;0.96;68.25;98959.41;2175565;82;21408;-76
2020/12/26 03:03:59;;;;;;;8.07;4.23;;;;;;;0.96;68.57;98968.40;2175651;82;21114;-77
2020/12/26 03:07:02;;;;;;;6.93;3.70;;;;;;;0.98;68.72;98964.63;2175446;82;21118;-77
2020/12/26 03:10:03;;;;;;;5.57;4.17;;;;;;;1.02;68.48;98967.83;2175525;82;21114;-78
2020/12/26 03:13:04;;;;;;;8.23;3.77;;;;;;;1.00;68.45;98971.61;2175490;82;21122;-77
2020/12/26 03:16:05;;;;;;;5.93;4.00;;;;;;;0.98;67.96;98970.65;2175764;82;21122;-79
2020/12/26 03:19:06;;;;;;;9.57;4.30;;;;;;;0.97;68.82;98971.45;2175661;82;21594;-78
2020/12/26 03:22:07;;;;;;;6.53;4.13;;;;;;;0.97;68.71;98972.73;2175732;82;21154;-76
2020/12/26 03:25:08;;;;;;;10.70;5.00;;;;;;;1.02;67.56;98976.42;2175726;82;21114;-77
2020/12/26 03:28:09;;;;;;;6.87;4.40;;;;;;;0.98;68.53;98977.47;2175649;82;21130;-79
2020/12/26 03:31:10;;;;;;;8.27;4.63;;;;;;;0.94;68.18;98972.58;2175838;82;21131;-78
2020/12/26 03:34:11;;;;;;;7.17;3.10;;;;;;;0.91;68.60;98973.70;2175720;82;21395;-77
2020/12/26 03:37:13;;;;;;;6.33;3.90;;;;;;;0.89;68.67;98974.91;2175543;82;21122;-77
2020/12/26 03:40:14;;;;;;;4.70;3.07;;;;;;;0.87;69.06;98981.66;2184679;81;21127;-78
2020/12/26 03:43:15;;;;;;;5.23;3.43;;;;;;;0.85;68.98;98980.66;2175545;82;21121;-77
2020/12/26 03:46:16;;;;;;;6.93;4.93;;;;;;;0.84;69.36;98978.90;2175925;82;21138;-77
2020/12/26 03:49:17;;;;;;;5.67;3.93;;;;;;;0.90;69.56;98987.36;2175587;82;21126;-77
2020/12/26 03:52:18;;;;;;;7.17;4.43;;;;;;;0.90;69.35;98984.39;2175646;82;21114;-77
2020/12/26 03:55:19;;;;;;;6.77;4.73;;;;;;;0.90;69.16;98989.93;2175891;82;21387;-78
2020/12/26 03:58:20;;;;;;;4.87;3.83;;;;;;;0.91;69.67;98986.55;2175665;82;21118;-76
2020/12/26 04:01:21;;;;;;;6.87;4.00;;;;;;;0.94;69.92;98991.86;2175539;82;21126;-77
2020/12/26 04:04:25;;;;;;;5.33;4.30;;;;;;;0.93;70.09;98993.55;2175611;82;21127;-77
2020/12/26 04:07:26;;;;;;;5.23;4.10;;;;;;;0.91;70.18;98996.44;2175711;82;21130;-76
2020/12/26 04:10:28;;;;;;;5.80;4.30;;;;;;;0.93;70.51;98993.95;2175531;82;21347;-77
2020/12/26 04:13:29;;;;;;;5.97;4.17;;;;;;;0.94;70.64;98994.42;2175752;82;21122;-77
2020/12/26 04:16:33;;;;;;;5.93;4.10;;;;;;;0.92;70.70;98992.18;2175808;82;21400;-78
2020/12/26 04:19:34;;;;;;;9.50;5.22;;;;;;;0.88;70.88;98986.00;2175759;82;21150;-77
2020/12/26 04:22:35;;;;;;;8.87;5.67;;;;;;;0.87;71.22;98995.80;2175722;82;21118;-77
2020/12/26 04:25:39;;;;;;;8.43;5.47;;;;;;;0.87;71.28;98993.63;2175532;82;21241;-78
2020/12/26 04:28:40;;;;;;;8.33;5.13;;;;;;;0.87;71.39;98988.08;2175427;82;21142;-77
2020/12/26 04:31:41;;;;;;;7.60;5.40;;;;;;;0.91;71.47;98992.98;2175927;82;21110;-78
2020/12/26 04:34:42;;;;;;;8.37;6.27;;;;;;;0.88;71.52;98989.85;2175562;82;21134;-78
2020/12/26 04:37:43;;;;;;;6.90;5.37;;;;;;;0.87;71.80;98991.06;2175601;82;21090;-77
2020/12/26 04:40:44;;;;;;;10.10;6.13;;;;;;;0.83;71.90;98998.09;2175355;81;21447;-76
2020/12/26 04:43:45;;;;;;;9.83;6.50;;;;;;;0.80;72.02;98994.96;2175126;82;21115;-77
2020/12/26 04:46:46;;;;;;;10.80;7.07;;;;;;;0.82;72.15;98994.64;2175227;82;21145;-78
2020/12/26 04:49:47;;;;;;;17.37;9.93;;;;;;;0.90;72.21;98997.64;2174473;82;21118;-77
2020/12/26 04:52:48;;;;;;;12.57;8.50;;;;;;;0.94;72.19;98995.71;2174990;82;21130;-77
2020/12/26 04:55:49;;;;;;;14.30;7.97;;;;;;;0.95;72.17;98992.34;2175157;82;21126;-77
2020/12/26 04:58:50;;;;;;;9.73;5.83;;;;;;;0.96;72.12;99000.53;2175221;82;21186;-77
2020/12/26 05:01:52;;;;;;;10.00;6.13;;;;;;;0.95;72.20;99003.50;2174527;82;21260;-78
2020/12/26 05:04:53;;;;;;;7.77;6.00;;;;;;;0.96;72.35;99000.53;2174734;82;21113;-77
2020/12/26 05:07:54;;;;;;;7.87;5.13;;;;;;;0.93;72.41;99004.23;2174742;82;21118;-77
2020/12/26 05:10:56;;;;;;;7.83;5.50;;;;;;;0.91;72.54;99014.83;2174660;82;21381;-76
2020/12/26 05:13:57;;;;;;;8.83;6.07;;;;;;;0.92;72.54;99021.33;2174378;82;21126;-76
2020/12/26 05:16:58;;;;;;;6.50;5.60;;;;;;;0.95;72.60;99019.33;2174800;82;21133;-78
2020/12/26 05:19:59;;;;;;;9.50;6.00;;;;;;;1.47;72.71;99022.86;2174830;82;21157;-77
2020/12/26 05:23:00;;;;;;;9.10;6.00;;;;;;;1.36;72.01;99023.13;2174808;82;21122;-79
2020/12/26 05:26:01;;;;;;;5.90;4.90;;;;;;;1.25;72.08;99029.02;2174903;82;21079;-78
2020/12/26 05:29:02;;;;;;;9.87;5.33;;;;;;;1.15;72.33;99023.81;2174823;82;21095;-77
2020/12/26 05:32:03;;;;;;;6.37;5.23;;;;;;;1.06;72.43;99024.62;2175185;82;21090;-82
2020/12/26 05:35:07;;;;;;;8.20;5.23;;;;;;;0.98;72.68;99029.77;2175421;82;21137;-79
2020/12/26 05:38:08;;;;;;;8.13;5.93;;;;;;;0.93;72.77;99031.22;2175286;82;21384;-80
2020/12/26 05:41:09;;;;;;;7.40;5.60;;;;;;;0.92;73.12;99035.47;2174886;81;21158;-78
2020/12/26 05:44:10;;;;;;;8.27;6.50;;;;;;;0.92;73.06;99039.72;2175364;82;21260;-78
2020/12/26 05:47:11;;;;;;;12.33;6.30;;;;;;;0.94;73.26;99043.26;2175383;82;21138;-77
2020/12/26 05:50:15;;;;;;;11.27;6.27;;;;;;;1.00;73.13;99045.27;2175274;82;21396;-77
2020/12/26 05:53:16;;;;;;;9.33;5.73;;;;;;;1.01;73.09;99044.47;2175226;82;21120;-77
2020/12/26 05:56:18;;;;;;;8.37;6.13;;;;;;;1.00;73.21;99049.13;2175352;82;21130;-76
2020/12/26 05:59:19;;;;;;;6.90;5.00;;;;;;;0.98;73.39;99057.16;2174179;82;21125;-77
2020/12/26 06:02:20;;;;;;;7.80;5.80;;;;;;;0.99;73.73;99065.34;2174794;82;21121;-77
2020/12/26 06:05:21;;;;;;;8.57;5.20;;;;;;;0.99;74.04;99069.20;2174929;82;21133;-77
2020/12/26 06:08:22;;;;;;;7.83;5.60;;;;;;;0.99;74.35;99065.34;2174810;82;21384;-78
2020/12/26 06:11:23;;;;;;;7.70;6.07;;;;;;;0.97;74.25;99061.81;2174994;82;21082;-75
2020/12/26 06:14:24;;;;;;;15.37;10.93;;;;;;;0.99;74.49;99066.63;2175088;82;21118;-76
2020/12/26 06:17:26;;;;;;;8.50;5.70;;;;;;;1.01;74.31;99068.48;2175353;82;21126;-77
2020/12/26 06:20:27;;;;;;;8.67;4.87;;;;;;;0.98;74.16;99073.46;2174756;82;21440;-79
2020/12/26 06:23:28;;;;;;;7.70;5.10;;;;;;;0.96;74.31;99073.78;2174326;82;21365;-77
2020/12/26 06:26:29;;;;;;;9.00;5.70;;;;;;;0.92;74.39;99078.28;2174372;82;21075;-77
2020/12/26 06:29:30;;;;;;;11.87;5.60;;;;;;;0.88;74.60;99086.63;2174326;82;21704;-78
2020/12/26 06:32:31;;;;;;;8.57;6.33;;;;;;;0.87;74.58;99086.14;2174368;82;21118;-76
2020/12/26 06:35:32;;;;;;;8.20;5.57;;;;;;;0.80;74.65;99095.58;2174982;82;21153;-77
2020/12/26 06:38:33;;;;;;;9.57;6.03;;;;;;;0.74;74.78;99092.68;2175094;82;21237;-78
2020/12/26 06:41:34;;;;;;;9.73;6.07;;;;;;;0.71;74.79;99092.11;2158733;79;21159;-77
2020/12/26 06:44:36;;;;;;;8.80;5.07;;;;;;;0.70;75.12;99095.48;2152107;82;21401;-77
2020/12/26 06:47:37;;;;;;;10.23;5.60;;;;;;;0.71;75.36;99098.94;2151925;82;21127;-78
2020/12/26 06:50:38;;;;;;;8.17;5.63;;;;;;;0.69;75.18;99101.42;2152089;82;21277;-78
2020/12/26 06:53:39;;;;;;;9.97;5.00;;;;;;;0.69;75.38;99103.11;2151798;83;21127;-77
2020/12/26 06:56:40;;;;;;;6.27;5.43;;;;;;;0.66;75.39;99107.68;2152003;83;21123;-80
2020/12/26 06:59:42;;;;;;;7.53;5.23;;;;;;;0.66;75.54;99102.94;2151949;83;21191;-78
2020/12/26 07:02:43;;;;;;;7.73;5.00;;;;;;;0.62;75.85;99116.91;2152042;83;21135;-78
2020/12/26 07:05:44;;;;;;;5.93;5.27;;;;;;;0.60;75.99;99110.80;2152103;83;21123;-77
2020/12/26 07:08:45;;;;;;;12.07;8.13;;;;;;;0.59;76.08;99116.73;2152059;82;21114;-79
2020/12/26 07:11:46;;;;;;;17.07;10.80;;;;;;;0.59;76.47;99118.42;2151955;83;21107;-79
2020/12/26 07:14:47;;;;;;;17.10;9.93;;;;;;;0.58;76.68;99128.21;2152296;82;21219;-79
2020/12/26 07:17:48;;;;;;;15.93;9.90;;;;;;;0.56;76.64;99122.98;2152117;82;21107;-78
2020/12/26 07:20:49;;;;;;;14.00;9.87;;;;;;;0.60;76.54;99117.22;2152230;82;21162;-78
2020/12/26 07:23:50;;;;;;;14.83;10.10;;;;;;;0.66;76.66;99131.20;2152016;82;21273;-78
2020/12/26 07:26:51;;;;;;;13.77;8.87;;;;;;;0.71;76.60;99137.08;2152199;82;21426;-78
2020/12/26 07:29:52;;;;;;;16.53;9.43;;;;;;;0.76;76.54;99135.64;2152230;82;21107;-79
2020/12/26 07:32:54;;;;;;;10.80;8.47;;;;;;;0.81;76.72;99137.18;2151850;82;21091;-79
2020/12/26 07:35:55;;;;;;;10.00;8.23;;;;;;;0.82;76.79;99141.52;2151924;83;21087;-79
2020/12/26 07:38:56;;;;;;;14.53;7.90;;;;;;;0.78;77.01;99146.00;2151948;82;21151;-79
2020/12/26 07:41:57;;;;;;;17.87;10.77;;;;;;;0.76;77.41;99152.75;2152009;82;21166;-78
2020/12/26 07:44:58;;;;;;;15.77;8.90;;;;;;;0.74;77.04;99151.78;2152213;83;21177;-79
2020/12/26 07:47:59;;;;;;;21.33;12.00;;;;;;;0.76;77.28;99151.46;2152332;82;21130;-79
2020/12/26 07:51:00;;;;;;;12.93;9.37;;;;;;;0.75;77.64;99148.41;2152088;83;21119;-79
2020/12/26 07:54:01;;;;;;;20.03;12.40;;;;;;;0.75;77.54;99153.55;2151732;83;21119;-78
2020/12/26 07:57:05;;;;;;;21.50;11.57;;;;;;;0.73;77.66;99162.86;2151689;83;21115;-78
2020/12/26 08:00:06;;;;;;;27.53;15.10;;;;;;;0.76;77.60;99166.88;2151695;83;21162;-78
2020/12/26 08:03:07;;;;;;;26.90;14.13;;;;;;;0.80;77.44;99175.24;2151533;83;21115;-78
2020/12/26 08:06:08;;;;;;;23.37;12.07;;;;;;;0.88;77.36;99176.18;2151965;82;21132;-77
2020/12/26 08:09:11;;;;;;;16.80;9.40;;;;;;;0.87;77.16;99181.23;2151798;83;21088;-78
2020/12/26 08:12:12;;;;;;;14.30;8.87;;;;;;;0.85;77.30;99178.55;2152098;83;21416;-78
2020/12/26 08:15:14;;;;;;;17.77;10.50;;;;;;;0.77;76.91;99176.36;2151751;83;21105;-77
2020/12/26 08:18:15;;;;;;;20.23;10.10;;;;;;;0.73;76.97;99178.27;2152068;83;21122;-77
2020/12/26 08:21:18;;;;;;;16.10;9.57;;;;;;;0.69;77.19;99181.47;2152174;82;21444;-77
2020/12/26 08:24:19;;;;;;;20.73;10.50;;;;;;;0.70;77.33;99190.55;2151788;83;21368;-77
2020/12/26 08:27:22;;;;;;;24.03;11.37;;;;;;;0.70;77.53;99180.67;2151779;83;21127;-76
2020/12/26 08:30:23;;;;;;;22.50;10.30;;;;;;;0.68;77.56;99196.00;2151859;82;21131;-77
2020/12/26 08:33:24;;;;;;;18.40;10.67;;;;;;;0.70;77.68;99198.66;2151327;82;21131;-78
2020/12/26 08:36:26;;;;;;;22.90;12.27;;;;;;;0.68;77.49;99202.83;2151780;83;21152;-78
2020/12/26 08:39:27;;;;;;;26.70;16.60;;;;;;;0.67;77.49;99209.65;2152848;79;21166;-77
2020/12/26 08:42:28;;;;;;;23.23;15.40;;;;;;;0.64;77.68;99215.50;2152069;82;21146;-77
2020/12/26 08:45:29;;;;;;;34.67;21.00;;;;;;;0.66;77.72;99224.98;2151952;83;21142;-78
2020/12/26 08:48:32;;;;;;;28.33;17.20;;;;;;;0.66;77.87;99222.41;2151939;83;21138;-77
2020/12/26 08:51:35;;;;;;;19.00;11.03;;;;;;;0.69;77.50;99218.33;2151964;83;21413;-77
2020/12/26 08:54:36;;;;;;;18.37;10.47;;;;;;;0.80;77.56;99203.51;2152245;82;21138;-78
2020/12/26 08:57:37;;;;;;;22.30;12.60;;;;;;;0.88;77.36;99226.30;2152061;82;21107;-77
2020/12/26 09:00:38;;;;;;;22.07;12.83;;;;;;;0.95;77.33;99219.41;2152176;82;21162;-79
2020/12/26 09:03:39;;;;;;;21.73;12.77;;;;;;;0.97;77.24;99216.92;2151557;83;21107;-77
2020/12/26 09:06:42;;;;;;;21.43;11.43;;;;;;;1.00;77.09;99223.92;2152174;83;21111;-76
2020/12/26 09:09:43;;;;;;;24.97;11.80;;;;;;;1.01;77.10;99234.69;2151676;83;21421;-77
2020/12/26 09:12:44;;;;;;;23.20;11.17;;;;;;;1.07;76.91;99229.48;2151605;82;21135;-77
2020/12/26 09:15:45;;;;;;;28.40;12.20;;;;;;;1.15;76.76;99229.50;2152150;82;21389;-77
2020/12/26 09:18:47;;;;;;;33.87;14.13;;;;;;;1.14;76.80;99227.73;2152001;83;21405;-78
2020/12/26 09:21:51;;;;;;;29.83;13.57;;;;;;;1.13;76.90;99230.22;2152423;82;21123;-77
2020/12/26 09:24:52;;;;;;;26.60;13.53;;;;;;;1.13;76.69;99220.82;2151933;82;21083;-77
2020/12/26 09:27:55;;;;;;;30.23;14.47;;;;;;;1.17;76.86;99225.33;2151741;83;21512;-77
2020/12/26 09:30:56;;;;;;;25.53;14.30;;;;;;;1.18;76.63;99237.78;2151945;82;21123;-78
2020/12/26 09:33:57;;;;;;;30.73;15.17;;;;;;;1.18;76.78;99234.81;2151954;83;21135;-78
2020/12/26 09:36:58;;;;;;;36.20;17.50;;;;;;;1.19;76.62;99237.87;2151698;83;21233;-77
2020/12/26 09:39:59;;;;;;;33.00;17.00;;;;;;;1.23;76.42;99238.52;2151431;82;21175;-78
2020/12/26 09:43:00;;;;;;;38.07;19.83;;;;;;;1.25;76.55;99238.20;2152142;83;21119;-77
2020/12/26 09:46:04;;;;;;;36.70;16.13;;;;;;;1.16;76.15;99237.70;2151938;83;21393;-78
2020/12/26 09:49:05;;;;;;;32.13;16.17;;;;;;;1.10;76.06;99242.50;2152029;82;21295;-78
2020/12/26 09:52:09;;;;;;;31.30;15.33;;;;;;;1.13;76.25;99239.22;2151858;83;21143;-79
2020/12/26 09:55:10;;;;;;;21.37;11.30;;;;;;;1.18;76.21;99228.38;2151496;82;21119;-79
2020/12/26 09:58:11;;;;;;;24.20;12.73;;;;;;;1.27;76.09;99234.42;2151584;82;21115;-77
2020/12/26 10:01:13;;;;;;;23.20;13.00;;;;;;;1.33;75.32;99241.59;2151801;83;21218;-76
2020/12/26 10:04:17;;;;;;;20.93;11.03;;;;;;;1.36;74.95;99239.19;2151634;83;21119;-78
2020/12/26 10:07:19;;;;;;;21.57;11.75;;;;;;;1.56;75.07;99242.42;2152233;83;21135;-77
2020/12/26 10:10:21;;;;;;;21.10;11.03;;;;;;;1.68;74.94;99237.04;2151366;83;21123;-78
2020/12/26 10:13:22;;;;;;;30.10;13.77;;;;;;;1.78;73.72;99239.33;2151652;83;21118;-78
2020/12/26 10:16:23;;;;;;;18.37;11.33;;;;;;;1.87;74.28;99239.41;2152387;82;21385;-78
2020/12/26 10:19:24;;;;;;;20.50;12.33;;;;;;;1.94;73.90;99243.58;2151793;83;21393;-78
2020/12/26 10:22:25;;;;;;;22.33;11.10;;;;;;;2.04;74.32;99239.39;2151681;83;21132;-77
2020/12/26 10:25:27;;;;;;;15.17;10.00;;;;;;;2.09;74.07;99239.22;2151864;83;21129;-78
2020/12/26 10:28:28;;;;;;;13.00;8.40;;;;;;;2.14;74.09;99240.34;2151968;83;21131;-79
2020/12/26 10:31:29;;;;;;;19.77;10.40;;;;;;;2.11;73.42;99240.19;2151783;82;21112;-77
2020/12/26 10:34:30;;;;;;;19.80;10.73;;;;;;;2.05;73.48;99239.87;2151452;82;21119;-79
2020/12/26 10:37:31;;;;;;;25.80;12.83;;;;;;;2.00;73.05;99240.03;2151397;83;21357;-77
2020/12/26 10:40:32;;;;;;;26.20;13.97;;;;;;;1.94;73.12;99232.88;2156355;81;21098;-77
2020/12/26 10:43:34;;;;;;;23.53;12.57;;;;;;;1.81;73.64;99228.79;2175341;82;21094;-78
2020/12/26 10:46:39;;;;;;;19.67;11.20;;;;;;;1.71;74.02;99235.91;2175687;82;21130;-78
2020/12/26 10:49:40;;;;;;;;;;;;;;;1.66;73.93;99236.95;2177998;82;21114;-78
2020/12/26 10:52:41;;;;;;;22.97;11.43;;;;;;;1.64;74.37;99232.13;2175335;82;20154;-77
2020/12/26 10:55:43;;;;;;;30.97;15.37;;;;;;;1.57;74.54;99229.64;2175716;82;21122;-77
2020/12/26 10:58:44;;;;;;;21.80;11.10;;;;;;;1.60;74.66;99240.49;2175390;82;21122;-78
2020/12/26 11:01:46;;;;;;;19.30;10.43;;;;;;;1.63;74.35;99239.37;2175483;82;21235;-77
2020/12/26 11:04:47;;;;;;;22.73;11.80;;;;;;;1.64;74.67;99241.54;2175554;82;21122;-77
2020/12/26 11:07:49;;;;;;;24.20;11.80;;;;;;;1.64;74.24;99240.25;2175272;82;21519;-78
2020/12/26 11:10:50;;;;;;;24.73;13.67;;;;;;;1.68;74.40;99248.22;2175495;82;21408;-77
2020/12/26 11:13:51;;;;;;;24.73;12.97;;;;;;;1.69;74.44;99247.41;2175514;82;21094;-79
2020/12/26 11:16:52;;;;;;;21.83;10.53;;;;;;;1.76;74.35;99241.82;2175705;82;21138;-78
2020/12/26 11:19:53;;;;;;;15.93;9.37;;;;;;;1.77;74.24;99244.88;2175586;82;21440;-78
2020/12/26 11:22:54;;;;;;;19.27;9.80;;;;;;;1.78;74.09;99246.64;2175173;82;21117;-77
2020/12/26 11:25:56;;;;;;;16.43;9.07;;;;;;;1.76;73.18;99249.94;2175240;82;21110;-77
2020/12/26 11:28:57;;;;;;;22.70;12.33;;;;;;;1.76;72.93;99249.54;2175371;82;21122;-80
2020/12/26 11:32:00;;;;;;;24.50;10.57;;;;;;;1.82;73.09;99240.85;2175398;82;21118;-78
2020/12/26 11:35:01;;;;;;;25.77;11.47;;;;;;;1.94;72.94;99238.44;2175356;82;21101;-76
2020/12/26 11:38:04;;;;;;;16.27;7.80;;;;;;;2.03;72.39;99240.20;2175750;82;21098;-79
2020/12/26 11:41:05;;;;;;;12.40;7.87;;;;;;;2.11;71.87;99244.93;2181439;81;21420;-79
2020/12/26 11:44:09;;;;;;;15.00;8.73;;;;;;;2.06;71.44;99238.66;2195237;81;21110;-78
2020/12/26 11:47:10;;;;;;;18.80;9.70;;;;;;;2.04;71.33;99244.54;2195266;81;21110;-78
2020/12/26 11:50:11;;;;;;;14.30;8.13;;;;;;;2.01;71.19;99235.37;2183289;81;21550;-78
2020/12/26 11:53:12;;;;;;;19.27;8.87;;;;;;;2.16;71.66;99242.59;2175629;82;21126;-78
2020/12/26 11:56:13;;;;;;;17.87;10.27;;;;;;;2.34;71.78;99235.80;2175607;82;21142;-76
2020/12/26 11:59:14;;;;;;;29.63;12.63;;;;;;;2.28;71.14;99238.06;2175544;82;21165;-79
2020/12/26 12:02:15;;;;;;;33.17;13.77;;;;;;;2.22;71.14;99240.33;2175694;82;21400;-77
2020/12/26 12:05:16;;;;;;;28.20;12.07;;;;;;;2.12;70.80;99236.80;2174811;82;21118;-77
2020/12/26 12:08:17;;;;;;;21.33;9.43;;;;;;;2.08;71.00;99246.47;2175616;82;21419;-78
2020/12/26 12:11:19;;;;;;;30.00;13.07;;;;;;;1.89;71.17;99251.06;2175240;82;21142;-78
2020/12/26 12:14:20;;;;;;;19.37;10.33;;;;;;;1.84;72.00;99253.41;2175565;82;21146;-78
2020/12/26 12:17:23;;;;;;;17.50;9.07;;;;;;;1.75;72.20;99254.20;2175875;82;21126;-77
2020/12/26 12:20:24;;;;;;;24.67;13.43;;;;;;;1.72;72.62;99253.13;2175778;82;21127;-77
2020/12/26 12:23:26;;;;;;;39.40;18.87;;;;;;;1.76;73.00;99255.09;2175710;82;21424;-78
2020/12/26 12:26:27;;;;;;;30.20;18.07;;;;;;;1.79;72.92;99257.83;2176297;82;21364;-83
2020/12/26 12:29:28;;;;;;;77.93;48.70;;;;;;;3.74;85.02;99256.75;2175983;82;21134;-80
2020/12/26 12:32:29;;;;;;;23.17;11.83;;;;;;;5.85;81.43;99256.42;2175742;82;21389;-77
2020/12/26 12:35:30;;;;;;;23.97;12.37;;;;;;;5.44;65.01;99251.87;2175481;82;21153;-77
2020/12/26 12:38:31;;;;;;;25.33;12.37;;;;;;;4.22;66.76;99261.43;2175717;82;21130;-77
2020/12/26 12:41:32;;;;;;;28.83;13.43;;;;;;;3.32;68.25;99264.66;2172911;79;21138;-77
2020/12/26 12:44:33;;;;;;;28.00;14.00;;;;;;;2.77;69.35;99261.14;2164518;81;21440;-75
2020/12/26 12:47:34;;;;;;;26.80;13.33;;;;;;;2.36;70.56;99265.50;2164880;82;21126;-76
2020/12/26 12:50:35;;;;;;;26.23;13.93;;;;;;;2.09;71.12;99263.69;2165042;82;21115;-76
2020/12/26 12:53:38;;;;;;;21.17;11.73;;;;;;;1.90;72.26;99276.89;2164967;82;21119;-77
2020/12/26 12:56:40;;;;;;;17.73;9.63;;;;;;;1.80;72.73;99277.21;2164963;82;21131;-76
2020/12/26 12:59:43;;;;;;;16.70;9.87;;;;;;;1.74;73.00;99285.01;2165024;82;21452;-76
2020/12/26 13:02:45;;;;;;;26.73;12.63;;;;;;;1.58;72.76;99287.13;2165274;82;21139;-76
2020/12/26 13:05:45;;;;;;;27.63;12.00;;;;;;;1.45;72.98;99292.02;2164326;82;21075;-76
2020/12/26 13:08:46;;;;;;;34.77;15.27;;;;;;;1.41;73.03;99300.37;2164923;82;21142;-76
2020/12/26 13:11:51;;;;;;;34.53;16.43;;;;;;;1.35;73.09;99302.59;2165094;82;21130;-76
2020/12/26 13:14:52;;;;;;;41.65;19.73;;;;;;;1.34;73.42;99305.09;2164676;81;21076;-76
2020/12/26 13:17:53;;;;;;;30.90;13.67;;;;;;;1.27;73.33;99301.30;2164661;82;21385;-76
2020/12/26 13:20:54;;;;;;;28.50;13.53;;;;;;;1.23;73.67;99302.81;2164379;82;21130;-75
2020/12/26 13:23:55;;;;;;;26.43;12.23;;;;;;;1.19;73.63;99302.55;2164699;82;21126;-76
2020/12/26 13:26:59;;;;;;;22.80;11.57;;;;;;;1.18;73.88;99297.81;2165197;82;21111;-76
2020/12/26 13:30:00;;;;;;;25.30;12.73;;;;;;;1.18;73.81;99300.38;2165116;82;21419;-76
2020/12/26 13:33:04;;;;;;;18.60;9.77;;;;;;;1.15;73.93;99299.33;2165002;82;21099;-75
2020/12/26 13:36:05;;;;;;;20.15;9.65;;;;;;;1.17;73.86;99305.04;2165531;82;21126;-76
2020/12/26 13:39:06;;;;;;;15.80;7.63;;;;;;;1.12;74.08;99303.90;2164894;82;21433;-76
2020/12/26 13:42:08;;;;;;;24.03;11.03;;;;;;;1.09;74.21;99311.44;2164827;82;21126;-79
2020/12/26 13:45:09;;;;;;;18.60;9.40;;;;;;;1.04;74.21;99302.58;2164755;82;21154;-76
2020/12/26 13:48:10;;;;;;;18.73;9.63;;;;;;;0.98;74.08;99308.66;2165165;82;21134;-76
2020/12/26 13:51:16;;;;;;;19.97;9.90;;;;;;;0.95;74.17;99307.20;2164901;82;21495;-75
2020/12/26 13:54:24;;;;;;;29.13;9.80;;;;;;;0.99;74.51;99319.43;2164698;82;21249;-77
2020/12/26 13:57:27;;;;;;;19.37;9.27;;;;;;;1.04;74.48;99323.15;2165172;82;21232;-77
2020/12/26 14:00:28;;;;;;;14.83;8.03;;;;;;;1.08;74.32;99337.95;2165194;82;21170;-77
2020/12/26 14:03:31;;;;;;;19.63;9.67;;;;;;;1.11;73.99;99341.98;2164994;82;21134;-77
2020/12/26 14:06:32;;;;;;;19.50;7.93;;;;;;;1.09;73.87;99334.58;2164922;82;21083;-76
2020/12/26 14:09:36;;;;;;;20.57;9.93;;;;;;;1.05;73.90;99331.75;2164789;82;21114;-78
2020/12/26 14:12:38;;;;;;;29.07;13.40;;;;;;;1.06;74.27;99333.12;2164907;82;21123;-75
2020/12/26 14:15:39;;;;;;;33.50;16.23;;;;;;;1.03;73.89;99339.77;2164949;82;21396;-77